Time;durP1;ratioP1;P1;durP2;ratioP2;P2;SDS_P1;SDS_P2;PMS_P1;PMS_P2;Temp;Humidity;BMP_temperature;BMP_pressure;BME280_temperature;BME280_humidity;BME280_pressure;Samples;Min_cycle;Max_cycle;Signal;HPM_P1;HPM_P2
2020/12/16 00:00:10;;;;;;;35.20;16.60;;;11.80;82.10;;;;;;5114910;28;20157;-70
2020/12/16 00:02:37;;;;;;;35.05;17.17;;;11.90;82.10;;;;;;5115743;28;20035;-70
2020/12/16 00:05:06;;;;;;;38.67;17.88;;;11.80;82.00;;;;;;5114515;28;20039;-70
2020/12/16 00:07:31;;;;;;;34.95;16.88;;;11.80;81.90;;;;;;5115190;28;20031;-70
2020/12/16 00:09:57;;;;;;;37.22;16.90;;;11.90;81.90;;;;;;5115247;28;20060;-70
2020/12/16 00:12:23;;;;;;;42.03;20.27;;;11.80;81.80;;;;;;5114411;28;20032;-70
2020/12/16 00:14:48;;;;;;;37.38;18.80;;;11.80;81.80;;;;;;5114874;28;20037;-70
2020/12/16 00:17:14;;;;;;;38.13;17.67;;;11.80;81.70;;;;;;5114918;28;20030;-70
2020/12/16 00:19:41;;;;;;;40.15;19.98;;;11.80;81.60;;;;;;5114153;28;20437;-70
2020/12/16 00:22:07;;;;;;;39.20;19.02;;;11.90;81.50;;;;;;5114911;28;20059;-70
2020/12/16 00:24:33;;;;;;;36.22;19.17;;;11.80;81.30;;;;;;5114682;28;20075;-70
2020/12/16 00:26:58;;;;;;;31.23;15.60;;;11.80;81.20;;;;;;5114168;28;20115;-70
2020/12/16 00:29:24;;;;;;;36.45;17.50;;;11.80;81.10;;;;;;5114763;28;20023;-70
2020/12/16 00:31:50;;;;;;;38.33;19.65;;;11.80;81.00;;;;;;5114626;28;20054;-70
2020/12/16 00:34:15;;;;;;;35.13;19.08;;;11.80;81.00;;;;;;5114215;28;20028;-70
2020/12/16 00:36:41;;;;;;;36.80;18.48;;;11.80;80.90;;;;;;5114732;28;20044;-70
2020/12/16 00:39:08;;;;;;;38.22;18.63;;;11.80;80.80;;;;;;5114614;28;20036;-70
2020/12/16 00:41:35;;;;;;;38.92;18.25;;;11.80;80.80;;;;;;5113924;28;20387;-70
2020/12/16 00:44:01;;;;;;;34.72;16.75;;;11.70;80.70;;;;;;5114541;28;20122;-70
2020/12/16 00:46:27;;;;;;;40.67;19.67;;;11.80;80.70;;;;;;5114473;28;20034;-70
2020/12/16 00:48:53;;;;;;;35.97;17.52;;;11.70;80.50;;;;;;5113901;27;20032;-70
2020/12/16 00:51:19;;;;;;;35.70;17.75;;;11.70;80.40;;;;;;5113062;28;20089;-70
2020/12/16 00:53:47;;;;;;;41.72;18.27;;;11.70;80.30;;;;;;5112817;28;20478;-70
2020/12/16 00:56:13;;;;;;;40.40;18.65;;;11.70;80.20;;;;;;5112494;28;20024;-70
2020/12/16 00:58:39;;;;;;;40.65;18.05;;;11.70;80.10;;;;;;5113183;28;20035;-70
2020/12/16 01:01:05;;;;;;;37.63;16.88;;;11.70;80.10;;;;;;5095854;28;20411;-70
2020/12/16 01:03:32;;;;;;;36.47;19.13;;;11.60;80.00;;;;;;5093283;28;20043;-69
2020/12/16 01:05:59;;;;;;;35.35;18.13;;;11.70;79.90;;;;;;5092210;28;20028;-70
2020/12/16 01:08:25;;;;;;;33.72;16.27;;;11.60;79.90;;;;;;5091516;28;20056;-70
2020/12/16 01:10:53;;;;;;;40.38;18.13;;;11.60;79.90;;;;;;5093534;28;20471;-70
2020/12/16 01:13:19;;;;;;;37.90;18.33;;;11.60;79.80;;;;;;5092205;28;20031;-70
2020/12/16 01:15:45;;;;;;;39.53;18.20;;;11.60;79.90;;;;;;5108930;28;20019;-70
2020/12/16 01:18:11;;;;;;;37.05;19.35;;;11.60;79.80;;;;;;5113376;28;20076;-69
2020/12/16 01:20:41;;;;;;;38.65;18.48;;;11.60;79.90;;;;;;5112554;28;20036;-69
2020/12/16 01:23:10;;;;;;;44.47;17.30;;;11.50;79.70;;;;;;5111764;28;20479;-70
2020/12/16 01:25:37;;;;;;;36.42;17.83;;;11.50;79.60;;;;;;5112405;28;20190;-70
2020/12/16 01:28:06;;;;;;;39.90;17.88;;;11.50;79.60;;;;;;5112626;28;20024;-70
2020/12/16 01:30:39;;;;;;;36.13;18.10;;;11.50;79.60;;;;;;5111311;28;20164;-70
2020/12/16 01:33:05;;;;;;;39.85;19.23;;;11.50;79.70;;;;;;5112277;28;20453;-69
2020/12/16 01:35:32;;;;;;;32.50;18.40;;;11.40;79.70;;;;;;5112389;28;20030;-69
2020/12/16 01:37:58;;;;;;;38.53;17.50;;;11.40;79.70;;;;;;5112640;28;20371;-69
2020/12/16 01:40:30;;;;;;;42.28;18.95;;;11.40;80.30;;;;;;5112320;28;20470;-69
2020/12/16 01:42:56;;;;;;;35.47;16.45;;;11.40;79.70;;;;;;5113203;28;20073;-70
2020/12/16 01:45:24;;;;;;;33.67;15.80;;;11.40;79.90;;;;;;5111678;28;20393;-70
2020/12/16 01:47:52;;;;;;;35.53;15.82;;;11.30;80.00;;;;;;5112317;28;20080;-70
2020/12/16 01:50:20;;;;;;;45.25;18.77;;;11.30;80.10;;;;;;5113354;28;20378;-69
2020/12/16 01:52:48;;;;;;;43.88;15.60;;;11.30;80.30;;;;;;5112104;28;20027;-69
2020/12/16 01:55:17;;;;;;;51.22;17.90;;;11.20;80.40;;;;;;5112410;28;20023;-70
2020/12/16 01:58:05;;;;;;;55.28;16.63;;;11.20;80.60;;;;;;5111654;28;20146;-69
2020/12/16 02:00:33;;;;;;;52.70;15.60;;;11.20;80.80;;;;;;5113754;28;20036;-70
2020/12/16 02:03:04;;;;;;;80.90;17.83;;;11.10;80.90;;;;;;5112354;28;20040;-69
2020/12/16 02:05:48;;;;;;;66.07;14.82;;;11.10;81.10;;;;;;5111469;28;20075;-69
2020/12/16 02:08:20;;;;;;;93.35;18.85;;;11.10;81.30;;;;;;5112466;28;20532;-69
2020/12/16 02:10:47;;;;;;;125.05;18.15;;;11.00;81.30;;;;;;5112203;28;20032;-69
2020/12/16 02:13:14;;;;;;;70.45;17.08;;;11.10;81.70;;;;;;5111555;28;20046;-70
2020/12/16 02:15:42;;;;;;;46.83;15.02;;;11.00;81.60;;;;;;5111852;28;20062;-69
2020/12/16 02:18:14;;;;;;;87.07;15.55;;;11.00;81.60;;;;;;5129189;27;20028;-69
2020/12/16 02:20:41;;;;;;;99.13;18.55;;;11.00;81.70;;;;;;5111681;28;20031;-70
2020/12/16 02:23:16;;;;;;;54.80;11.43;;;11.00;81.80;;;;;;5112103;28;20470;-70
2020/12/16 02:25:43;;;;;;;58.92;14.40;;;11.00;81.70;;;;;;5111235;28;20055;-70
2020/12/16 02:28:09;;;;;;;115.85;20.42;;;11.00;81.90;;;;;;5112025;28;20081;-70
2020/12/16 02:30:40;;;;;;;94.70;17.38;;;11.00;82.00;;;;;;5117138;28;20471;-69
2020/12/16 02:33:27;;;;;;;27.73;7.57;;;11.00;82.00;;;;;;5115088;28;20543;-70
2020/12/16 02:36:04;;;;;;;98.22;17.27;;;10.90;81.90;;;;;;5115876;28;20024;-70
2020/12/16 02:38:51;;;;;;;38.97;13.02;;;10.90;82.00;;;;;;5115673;28;20470;-70
2020/12/16 02:41:24;;;;;;;54.67;16.88;;;10.90;82.00;;;;;;5114934;28;20493;-69
2020/12/16 02:43:51;;;;;;;45.70;13.52;;;10.90;82.30;;;;;;5115471;28;20052;-70
2020/12/16 02:46:18;;;;;;;72.60;16.75;;;10.90;82.20;;;;;;5115198;28;20418;-69
2020/12/16 02:48:43;;;;;;;50.75;15.73;;;10.90;82.30;;;;;;5115050;28;20027;-70
2020/12/16 02:51:10;;;;;;;82.60;20.20;;;10.90;82.30;;;;;;5115484;28;20425;-70
2020/12/16 02:53:36;;;;;;;19.02;6.78;;;10.90;82.50;;;;;;5115137;28;20110;-70
2020/12/16 02:56:26;;;;;;;34.35;14.10;;;10.90;82.40;;;;;;5115281;28;20027;-70
2020/12/16 02:59:01;;;;;;;46.08;14.27;;;10.90;82.30;;;;;;5115590;28;20062;-69
2020/12/16 03:01:30;;;;;;;38.10;15.23;;;10.80;82.40;;;;;;5094827;28;20028;-69
2020/12/16 03:04:03;;;;;;;47.63;15.80;;;10.90;82.60;;;;;;5094494;28;20097;-66
2020/12/16 03:06:40;;;;;;;30.17;8.48;;;10.90;82.60;;;;;;5094610;28;20140;-70
2020/12/16 03:09:11;;;;;;;53.80;14.18;;;10.90;82.40;;;;;;5095128;28;20052;-71
2020/12/16 03:11:39;;;;;;;70.00;15.20;;;10.90;82.20;;;;;;5094409;28;20036;-69
2020/12/16 03:14:07;;;;;;;46.53;10.98;;;11.00;82.30;;;;;;5094089;28;20491;-70
2020/12/16 03:16:34;;;;;;;18.10;6.18;;;10.90;82.20;;;;;;5093706;28;20020;-70
2020/12/16 03:19:13;;;;;;;28.35;7.97;;;10.90;82.20;;;;;;5094322;28;20465;-70
2020/12/16 03:21:39;;;;;;;45.33;9.43;;;10.90;82.20;;;;;;5095255;28;20062;-70
2020/12/16 03:24:16;;;;;;;20.20;6.75;;;10.90;82.20;;;;;;5093599;28;20051;-69
2020/12/16 03:26:56;;;;;;;16.50;6.63;;;10.80;82.00;;;;;;5095328;28;20054;-70
2020/12/16 03:29:43;;;;;;;8.38;4.20;;;10.90;82.20;;;;;;5092824;28;20028;-69
2020/12/16 03:32:24;;;;;;;43.45;14.25;;;10.90;82.20;;;;;;5094399;28;20063;-69
2020/12/16 03:35:08;;;;;;;;;;;10.80;82.30;;;;;;5095575;28;20050;-69
2020/12/16 03:37:34;;;;;;;39.33;12.38;;;10.80;82.10;;;;;;5093396;28;19912;-70
2020/12/16 03:40:00;;;;;;;16.80;7.85;;;10.80;82.10;;;;;;5093457;28;20032;-69
2020/12/16 03:42:35;;;;;;;30.55;7.47;;;10.80;82.20;;;;;;5093651;28;20039;-69
2020/12/16 03:45:02;;;;;;;26.15;11.10;;;10.80;82.40;;;;;;5093324;28;20590;-70
2020/12/16 03:47:28;;;;;;;13.10;6.50;;;10.80;82.40;;;;;;5093844;28;20479;-69
2020/12/16 03:49:54;;;;;;;53.95;13.63;;;10.80;82.50;;;;;;5093305;28;20032;-69
2020/12/16 03:52:20;;;;;;;20.20;9.05;;;10.80;82.50;;;;;;5094745;28;20024;-69
2020/12/16 03:54:58;;;;;;;19.48;8.55;;;10.80;82.40;;;;;;5093873;28;20054;-70
2020/12/16 03:57:33;;;;;;;31.23;12.57;;;10.80;82.40;;;;;;5092888;28;20479;-69
2020/12/16 04:00:16;;;;;;;58.25;14.07;;;10.80;82.40;;;;;;5093651;28;20033;-70
2020/12/16 04:02:42;;;;;;;23.00;8.90;;;10.80;82.40;;;;;;5095159;28;20032;-70
2020/12/16 04:05:22;;;;;;;25.52;10.73;;;10.80;82.30;;;;;;5092963;28;20502;-70
2020/12/16 04:07:48;;;;;;;7.78;4.55;;;10.80;82.30;;;;;;5093652;28;20020;-70
2020/12/16 04:10:33;;;;;;;27.20;11.57;;;10.80;82.20;;;;;;5094366;28;20032;-70
2020/12/16 04:13:00;;;;;;;35.80;11.88;;;10.80;82.20;;;;;;5092987;28;20028;-70
2020/12/16 04:15:25;;;;;;;25.33;10.48;;;10.90;82.40;;;;;;5093288;28;20028;-70
2020/12/16 04:17:51;;;;;;;34.40;10.88;;;10.90;82.40;;;;;;5093383;28;20028;-70
2020/12/16 04:20:20;;;;;;;40.45;12.55;;;10.90;82.40;;;;;;5092883;28;20040;-70
2020/12/16 04:22:55;;;;;;;15.95;6.80;;;10.90;82.30;;;;;;5093321;28;20106;-69
2020/12/16 04:25:21;;;;;;;27.25;10.75;;;11.00;82.10;;;;;;5092035;28;20102;-70
2020/12/16 04:27:47;;;;;;;27.70;11.35;;;10.90;82.00;;;;;;5094681;28;20020;-70
2020/12/16 04:30:15;;;;;;;16.27;6.43;;;11.00;82.20;;;;;;5093106;28;20031;-69
2020/12/16 04:32:51;;;;;;;21.90;7.57;;;11.00;82.00;;;;;;5093684;28;20431;-70
2020/12/16 04:35:18;;;;;;;27.40;11.90;;;10.90;81.90;;;;;;5093019;28;20032;-71
2020/12/16 04:37:51;;;;;;;35.17;11.35;;;11.00;82.00;;;;;;5092897;28;20036;-69
2020/12/16 04:40:17;;;;;;;39.72;12.13;;;11.00;82.20;;;;;;5092351;28;20528;-69
2020/12/16 04:42:43;;;;;;;40.08;9.98;;;11.00;82.00;;;;;;5094309;28;20106;-69
2020/12/16 04:45:11;;;;;;;38.10;11.85;;;11.00;81.90;;;;;;5092826;28;20396;-74
2020/12/16 04:47:38;;;;;;;20.13;8.45;;;11.00;82.00;;;;;;5092073;28;20118;-70
2020/12/16 04:50:15;;;;;;;40.00;12.98;;;11.00;82.00;;;;;;5092801;28;20024;-71
2020/12/16 04:52:49;;;;;;;40.80;11.32;;;11.00;81.90;;;;;;5093320;28;20028;-70
2020/12/16 04:55:19;;;;;;;34.60;12.30;;;11.00;81.90;;;;;;5092256;28;20050;-70
2020/12/16 04:58:05;;;;;;;26.80;12.35;;;11.00;82.00;;;;;;5092842;28;20518;-70
2020/12/16 05:00:33;;;;;;;41.20;8.93;;;11.10;82.10;;;;;;5088570;28;20028;-69
2020/12/16 05:03:10;;;;;;;32.67;11.45;;;11.00;81.80;;;;;;5104796;28;20031;-69
2020/12/16 05:05:54;;;;;;;24.17;10.45;;;11.00;81.70;;;;;;5103545;28;20411;-69
2020/12/16 05:08:20;;;;;;;35.28;8.93;;;11.10;81.80;;;;;;5090864;28;20032;-71
2020/12/16 05:10:48;;;;;;;29.70;11.38;;;11.00;81.80;;;;;;5091502;28;20117;-69
2020/12/16 05:13:16;;;;;;;25.00;10.68;;;11.10;81.90;;;;;;5093586;28;20039;-69
2020/12/16 05:15:44;;;;;;;37.33;13.25;;;11.10;82.40;;;;;;5092547;28;20559;-69
2020/12/16 05:18:16;;;;;;;37.95;10.52;;;11.10;81.90;;;;;;5093671;28;20383;-69
2020/12/16 05:20:55;;;;;;;26.85;8.98;;;11.10;81.90;;;;;;5093174;28;20084;-69
2020/12/16 05:23:24;;;;;;;35.55;9.35;;;11.10;81.70;;;;;;5092253;28;20479;-69
2020/12/16 05:26:08;;;;;;;48.40;12.68;;;11.10;81.70;;;;;;5091730;28;20051;-69
2020/12/16 05:28:47;;;;;;;49.97;11.98;;;11.10;81.80;;;;;;5092751;28;20416;-69
2020/12/16 05:31:14;;;;;;;40.05;11.25;;;11.10;81.60;;;;;;5104913;28;20068;-69
2020/12/16 05:33:48;;;;;;;80.68;14.38;;;11.10;81.60;;;;;;5113978;28;20040;-69
2020/12/16 05:36:30;;;;;;;90.22;14.27;;;11.10;81.80;;;;;;5113001;28;20387;-69
2020/12/16 05:38:56;;;;;;;52.13;11.40;;;11.10;81.80;;;;;;5114003;28;20470;-69
2020/12/16 05:41:30;;;;;;;57.88;10.77;;;11.10;81.70;;;;;;5113905;28;20034;-69
2020/12/16 05:44:18;;;;;;;40.45;11.65;;;11.10;81.80;;;;;;5113213;28;20036;-69
2020/12/16 05:46:45;;;;;;;65.78;14.10;;;11.10;81.90;;;;;;5113865;28;20085;-69
2020/12/16 05:49:29;;;;;;;46.90;13.60;;;11.10;81.90;;;;;;5113438;28;20042;-69
2020/12/16 05:52:05;;;;;;;19.77;5.45;;;11.00;82.00;;;;;;5113430;28;20035;-69
2020/12/16 05:54:34;;;;;;;26.45;9.75;;;11.00;81.90;;;;;;5113858;28;20111;-70
2020/12/16 05:57:12;;;;;;;32.72;11.20;;;11.10;81.90;;;;;;5112911;28;20130;-69
2020/12/16 05:59:39;;;;;;;65.50;12.48;;;11.10;82.10;;;;;;5113764;28;20103;-69
2020/12/16 06:02:06;;;;;;;55.72;13.13;;;11.10;82.20;;;;;;5113814;28;20443;-69
2020/12/16 06:04:36;;;;;;;25.77;9.52;;;11.10;82.00;;;;;;5116500;28;20175;-69
2020/12/16 06:07:07;;;;;;;73.60;11.77;;;11.00;82.20;;;;;;5117645;28;20031;-69
2020/12/16 06:09:33;;;;;;;28.30;9.10;;;11.10;82.20;;;;;;5117294;28;20089;-69
2020/12/16 06:12:08;;;;;;;35.60;12.48;;;11.10;82.10;;;;;;5117190;28;20032;-69
2020/12/16 06:14:35;;;;;;;14.35;5.47;;;11.10;82.90;;;;;;5115979;28;20027;-69
2020/12/16 06:17:09;;;;;;;25.90;9.02;;;11.10;82.00;;;;;;5117324;28;20024;-69
2020/12/16 06:19:35;;;;;;;24.30;8.07;;;11.10;82.10;;;;;;5116870;28;20043;-69
2020/12/16 06:22:08;;;;;;;38.08;11.75;;;11.10;81.80;;;;;;5117172;28;20036;-69
2020/12/16 06:24:42;;;;;;;31.42;11.10;;;11.10;82.10;;;;;;5116913;28;20051;-69
2020/12/16 06:27:08;;;;;;;;;;;11.10;82.10;;;;;;5117266;27;20073;-69
2020/12/16 06:29:37;;;;;;;18.10;7.82;;;11.10;82.00;;;;;;5117368;28;19915;-69
2020/12/16 06:32:06;;;;;;;35.65;11.60;;;11.10;81.80;;;;;;5116373;28;20028;-69
2020/12/16 06:34:35;;;;;;;20.38;8.80;;;11.00;82.00;;;;;;5116970;28;20085;-69
2020/12/16 06:37:01;;;;;;;34.53;12.60;;;11.00;82.00;;;;;;5117168;28;20046;-69
2020/12/16 06:39:28;;;;;;;29.80;11.73;;;11.10;82.10;;;;;;5116467;28;20026;-69
2020/12/16 06:41:55;;;;;;;33.63;12.15;;;11.10;82.20;;;;;;5107081;28;20036;-70
2020/12/16 06:44:21;;;;;;;28.40;10.77;;;11.10;82.20;;;;;;5095643;28;20075;-70
2020/12/16 06:46:52;;;;;;;41.88;16.08;;;11.10;82.20;;;;;;5094601;28;20055;-71
2020/12/16 06:49:18;;;;;;;34.38;13.98;;;11.10;82.40;;;;;;5091619;28;20112;-69
2020/12/16 06:51:46;;;;;;;33.70;13.18;;;11.10;82.40;;;;;;5096741;28;20107;-69
2020/12/16 06:54:20;;;;;;;14.18;5.45;;;11.10;82.30;;;;;;5093568;28;20031;-69
2020/12/16 06:56:49;;;;;;;23.45;10.32;;;11.10;82.10;;;;;;5095157;28;20024;-68
2020/12/16 06:59:42;;;;;;;31.02;10.38;;;11.10;81.90;;;;;;5092454;28;20031;-68
2020/12/16 07:02:31;;;;;;;38.53;15.23;;;11.10;81.90;;;;;;5082152;28;20557;-69
2020/12/16 07:04:59;;;;;;;17.75;7.43;;;11.10;82.00;;;;;;5080035;28;20408;-69
2020/12/16 07:07:47;;;;;;;23.50;8.00;;;11.10;81.70;;;;;;5093939;28;20077;-69
2020/12/16 07:10:36;;;;;;;34.00;13.25;;;11.00;81.60;;;;;;5092626;28;20042;-69
2020/12/16 07:13:27;;;;;;;38.80;8.60;;;11.00;81.80;;;;;;5092067;28;20055;-68
2020/12/16 07:16:03;;;;;;;25.65;11.13;;;11.00;81.70;;;;;;5082352;28;20039;-69
2020/12/16 07:18:52;;;;;;;33.15;10.00;;;11.00;81.90;;;;;;5093472;28;20020;-68
2020/12/16 07:21:24;;;;;;;23.92;9.55;;;11.00;81.90;;;;;;5093185;28;20489;-68
2020/12/16 07:24:16;;;;;;;27.50;10.52;;;11.00;82.00;;;;;;5095779;28;20036;-67
2020/12/16 07:26:43;;;;;;;35.70;12.25;;;11.00;81.90;;;;;;5090493;28;20046;-68
2020/12/16 07:29:35;;;;;;;36.45;14.55;;;11.00;81.90;;;;;;5093817;28;20024;-70
2020/12/16 07:32:06;;;;;;;31.27;11.30;;;11.00;82.10;;;;;;5094160;28;20035;-65
2020/12/16 07:34:47;;;;;;;11.55;4.25;;;11.00;81.90;;;;;;5094022;28;20088;-67
2020/12/16 07:37:15;;;;;;;29.95;11.13;;;11.00;81.80;;;;;;5092698;28;20099;-68
2020/12/16 07:39:57;;;;;;;24.67;10.70;;;10.90;82.00;;;;;;5091415;28;20402;-67
2020/12/16 07:42:31;;;;;;;18.38;6.63;;;10.90;82.30;;;;;;5087280;28;20439;-67
2020/12/16 07:45:05;;;;;;;;;;;11.00;82.30;;;;;;5092638;28;20036;-68
2020/12/16 07:47:30;;;;;;;30.67;12.15;;;11.00;82.20;;;;;;5092136;28;19953;-68
2020/12/16 07:49:56;;;;;;;29.15;11.50;;;11.00;82.10;;;;;;5097274;28;20044;-66
2020/12/16 07:52:24;;;;;;;28.75;11.90;;;11.00;82.30;;;;;;5105079;28;20077;-68
2020/12/16 07:54:49;;;;;;;27.98;12.07;;;11.10;82.40;;;;;;5104029;28;20444;-68
2020/12/16 07:57:15;;;;;;;29.80;12.10;;;11.10;82.40;;;;;;5088431;28;20074;-68
2020/12/16 07:59:40;;;;;;;26.35;11.63;;;11.10;82.30;;;;;;5093991;28;20040;-68
2020/12/16 08:02:11;;;;;;;28.75;12.77;;;11.20;82.20;;;;;;5092903;28;20490;-69
2020/12/16 08:04:39;;;;;;;34.08;11.82;;;11.20;82.20;;;;;;5093242;28;20040;-68
2020/12/16 08:07:12;;;;;;;31.55;12.70;;;11.20;82.00;;;;;;5093630;28;20114;-68
2020/12/16 08:09:37;;;;;;;40.28;12.75;;;11.20;82.00;;;;;;5093779;28;20028;-68
2020/12/16 08:12:03;;;;;;;35.28;12.50;;;11.20;81.90;;;;;;5092689;28;20047;-67
2020/12/16 08:14:28;;;;;;;31.67;13.38;;;11.20;81.90;;;;;;5092696;28;20361;-68
2020/12/16 08:17:08;;;;;;;42.63;14.02;;;11.20;81.90;;;;;;5092893;28;20028;-67
2020/12/16 08:19:34;;;;;;;42.58;13.55;;;11.20;81.90;;;;;;5093443;28;20384;-68
2020/12/16 08:22:10;;;;;;;31.40;13.10;;;11.20;81.80;;;;;;5099492;28;20042;-66
2020/12/16 08:24:36;;;;;;;32.08;12.20;;;11.20;81.80;;;;;;5072179;28;20055;-67
2020/12/16 08:27:01;;;;;;;30.48;12.65;;;11.10;81.70;;;;;;5093254;28;20391;-66
2020/12/16 08:29:29;;;;;;;32.25;11.93;;;11.10;81.70;;;;;;5093771;28;20081;-66
2020/12/16 08:31:55;;;;;;;33.75;13.70;;;11.10;81.70;;;;;;5092887;28;20020;-66
2020/12/16 08:34:22;;;;;;;32.75;12.43;;;11.10;81.80;;;;;;5093211;28;20040;-66
2020/12/16 08:36:50;;;;;;;28.65;12.48;;;11.10;81.70;;;;;;5093377;28;20031;-67
2020/12/16 08:39:24;;;;;;;28.58;10.43;;;11.10;81.90;;;;;;5092471;28;20479;-66
2020/12/16 08:41:54;;;;;;;26.08;11.43;;;11.10;82.00;;;;;;5077979;28;20053;-67
2020/12/16 08:44:23;;;;;;;33.75;11.57;;;11.00;82.00;;;;;;5107972;28;20462;-66
2020/12/16 08:46:50;;;;;;;26.40;13.02;;;11.00;82.00;;;;;;5111078;28;20520;-66
2020/12/16 08:49:19;;;;;;;25.40;11.85;;;11.10;82.20;;;;;;5112935;28;20383;-69
2020/12/16 08:51:45;;;;;;;32.42;12.68;;;11.00;82.10;;;;;;5112535;28;20444;-66
2020/12/16 08:54:12;;;;;;;22.48;11.73;;;11.10;82.20;;;;;;5111803;28;20032;-66
2020/12/16 08:56:49;;;;;;;28.52;12.70;;;11.00;82.20;;;;;;5110751;28;20041;-66
2020/12/16 08:59:21;;;;;;;36.35;12.85;;;11.10;82.30;;;;;;5106958;28;20486;-66
2020/12/16 09:01:49;;;;;;;30.73;12.73;;;11.10;83.00;;;;;;5091693;28;20032;-66
2020/12/16 09:04:26;;;;;;;24.48;11.68;;;11.10;82.40;;;;;;5092510;28;20054;-66
2020/12/16 09:07:13;;;;;;;27.38;10.80;;;11.10;82.40;;;;;;5092394;28;20028;-66
2020/12/16 09:09:51;;;;;;;27.08;10.52;;;11.10;82.40;;;;;;5111163;28;20423;-66
2020/12/16 09:12:22;;;;;;;37.85;13.25;;;11.10;82.30;;;;;;5112116;28;20028;-66
2020/12/16 09:14:56;;;;;;;28.52;12.15;;;11.10;82.40;;;;;;5112375;28;20425;-66
2020/12/16 09:17:23;;;;;;;35.10;14.70;;;11.10;82.50;;;;;;5113046;28;20039;-66
2020/12/16 09:19:48;;;;;;;32.45;13.00;;;11.10;82.60;;;;;;5112642;28;20053;-69
2020/12/16 09:22:14;;;;;;;45.67;15.25;;;11.10;82.80;;;;;;5112193;28;20450;-66
2020/12/16 09:24:40;;;;;;;42.42;15.20;;;11.10;82.70;;;;;;5112699;28;20047;-66
2020/12/16 09:27:09;;;;;;;31.58;12.98;;;11.10;82.80;;;;;;5112472;28;20032;-67
2020/12/16 09:29:43;;;;;;;35.97;13.35;;;11.10;82.90;;;;;;5112225;28;20031;-67
2020/12/16 09:32:20;;;;;;;38.78;15.48;;;11.00;83.00;;;;;;5112653;28;20031;-66
2020/12/16 09:34:48;;;;;;;30.48;14.48;;;11.10;83.10;;;;;;5112314;28;20032;-66
2020/12/16 09:37:13;;;;;;;40.60;17.30;;;11.00;83.00;;;;;;5112318;28;20035;-67
2020/12/16 09:39:40;;;;;;;33.38;15.73;;;11.00;83.10;;;;;;5109584;28;20024;-67
2020/12/16 09:42:14;;;;;;;39.83;17.95;;;11.00;83.10;;;;;;5090268;28;20086;-67
2020/12/16 09:44:40;;;;;;;58.65;15.50;;;11.00;83.20;;;;;;5092481;28;20048;-67
2020/12/16 09:47:10;;;;;;;71.15;17.77;;;11.00;83.20;;;;;;5092143;28;20028;-67
2020/12/16 09:49:36;;;;;;;83.13;17.17;;;11.10;83.40;;;;;;5091765;28;20038;-67
2020/12/16 09:52:02;;;;;;;59.67;14.65;;;11.00;83.30;;;;;;5092216;28;20107;-67
2020/12/16 09:54:29;;;;;;;50.50;14.70;;;11.00;83.30;;;;;;5091915;28;20028;-66
2020/12/16 09:57:06;;;;;;;61.75;13.98;;;11.00;83.20;;;;;;5092028;28;20114;-67
2020/12/16 09:59:31;;;;;;;69.28;17.42;;;10.90;83.20;;;;;;5092499;28;20032;-66
2020/12/16 10:01:57;;;;;;;45.80;16.63;;;10.90;83.10;;;;;;5092339;28;20028;-66
2020/12/16 10:04:23;;;;;;;42.95;14.23;;;10.90;83.30;;;;;;5091395;28;20051;-66
2020/12/16 10:06:48;;;;;;;71.32;19.13;;;10.90;83.40;;;;;;5092060;28;20361;-68
2020/12/16 10:09:14;;;;;;;51.63;17.10;;;10.90;83.60;;;;;;5095811;28;20039;-67
2020/12/16 10:11:40;;;;;;;53.28;18.85;;;10.90;83.70;;;;;;5105261;28;20032;-66
2020/12/16 10:14:05;;;;;;;38.45;15.80;;;10.90;83.80;;;;;;5091437;28;20094;-67
2020/12/16 10:16:32;;;;;;;42.97;14.80;;;10.90;83.90;;;;;;5089361;28;20042;-67
2020/12/16 10:18:59;;;;;;;32.40;13.20;;;10.90;83.90;;;;;;5091606;28;20028;-67
2020/12/16 10:21:25;;;;;;;33.22;14.23;;;10.90;84.40;;;;;;5101327;28;20020;-67
2020/12/16 10:23:51;;;;;;;49.88;17.50;;;10.90;83.90;;;;;;5111097;28;20479;-67
2020/12/16 10:26:16;;;;;;;49.15;18.88;;;10.90;83.80;;;;;;5097719;28;20059;-66
2020/12/16 10:28:42;;;;;;;46.97;20.08;;;10.90;83.80;;;;;;5091768;28;20036;-66
2020/12/16 10:31:07;;;;;;;44.55;19.63;;;11.00;83.90;;;;;;5090900;28;20035;-66
2020/12/16 10:33:33;;;;;;;51.28;21.92;;;11.00;84.00;;;;;;5092099;28;20031;-67
2020/12/16 10:35:59;;;;;;;54.60;20.92;;;11.10;84.10;;;;;;5091428;28;20032;-67
2020/12/16 10:38:24;;;;;;;42.17;16.58;;;11.00;84.20;;;;;;5090854;28;20534;-66
2020/12/16 10:40:50;;;;;;;46.63;17.05;;;11.10;84.20;;;;;;5091544;28;20554;-66
2020/12/16 10:43:15;;;;;;;56.70;20.00;;;11.10;84.10;;;;;;5091344;28;20115;-67
2020/12/16 10:45:41;;;;;;;30.77;11.00;;;11.00;84.20;;;;;;5091404;28;20039;-66
2020/12/16 10:48:07;;;;;;;27.33;9.10;;;11.10;84.20;;;;;;5090664;28;20028;-66
2020/12/16 10:50:33;;;;;;;47.90;18.52;;;11.10;84.00;;;;;;5109220;28;20100;-66
2020/12/16 10:53:00;;;;;;;48.78;19.13;;;11.10;84.00;;;;;;5114396;27;20608;-66
2020/12/16 10:55:26;;;;;;;42.60;18.50;;;11.10;84.00;;;;;;5115719;28;20031;-64
2020/12/16 10:57:52;;;;;;;51.88;20.55;;;11.10;84.00;;;;;;5115412;28;20039;-65
2020/12/16 11:00:18;;;;;;;34.55;14.90;;;11.10;84.10;;;;;;5115033;28;20032;-65
2020/12/16 11:02:44;;;;;;;44.85;18.90;;;11.10;84.00;;;;;;5115614;28;20020;-64
2020/12/16 11:05:10;;;;;;;44.67;17.67;;;11.20;84.10;;;;;;5115341;28;20136;-66
2020/12/16 11:07:36;;;;;;;44.95;19.73;;;11.20;83.90;;;;;;5115158;28;20035;-66
2020/12/16 11:10:02;;;;;;;39.95;17.30;;;11.20;83.90;;;;;;5115163;28;20029;-67
2020/12/16 11:12:28;;;;;;;32.78;13.20;;;11.20;83.80;;;;;;5115417;28;20051;-66
2020/12/16 11:14:53;;;;;;;42.22;19.15;;;11.20;83.70;;;;;;5114901;28;20058;-67
2020/12/16 11:17:19;;;;;;;50.13;19.88;;;11.20;83.50;;;;;;5114415;28;20068;-67
2020/12/16 11:19:45;;;;;;;37.13;15.27;;;11.30;83.70;;;;;;5108940;28;20156;-66
2020/12/16 11:22:11;;;;;;;53.85;24.45;;;11.30;83.70;;;;;;5113747;28;20027;-66
2020/12/16 11:24:37;;;;;;;44.10;16.75;;;11.30;83.80;;;;;;5114324;28;20048;-66
2020/12/16 11:27:03;;;;;;;54.55;21.27;;;11.30;83.70;;;;;;5114854;28;20050;-66
2020/12/16 11:29:28;;;;;;;54.92;19.88;;;11.30;83.70;;;;;;5109691;28;20517;-66
2020/12/16 11:31:57;;;;;;;63.78;25.48;;;11.30;83.60;;;;;;5094475;28;20024;-66
2020/12/16 11:34:24;;;;;;;54.20;20.50;;;11.30;83.80;;;;;;5093699;28;20055;-67
2020/12/16 11:36:52;;;;;;;55.88;22.80;;;11.30;83.90;;;;;;5093762;28;20071;-65
2020/12/16 11:39:18;;;;;;;53.90;22.48;;;11.30;83.90;;;;;;5094488;28;20074;-65
2020/12/16 11:41:49;;;;;;;37.92;18.52;;;11.30;84.00;;;;;;5073830;28;20116;-66
2020/12/16 11:44:20;;;;;;;52.03;23.10;;;11.40;84.00;;;;;;5073893;28;20032;-65
2020/12/16 11:46:47;;;;;;;56.53;19.80;;;11.30;84.00;;;;;;5074114;28;20464;-67
2020/12/16 11:49:13;;;;;;;46.58;20.55;;;11.40;84.10;;;;;;5086498;28;20079;-66
2020/12/16 11:51:39;;;;;;;49.22;22.52;;;11.30;84.10;;;;;;5114287;28;20031;-66
2020/12/16 11:54:05;;;;;;;45.58;19.83;;;11.30;84.30;;;;;;5113850;28;20045;-71
2020/12/16 11:56:34;;;;;;;40.10;18.25;;;11.30;84.40;;;;;;5114344;28;20031;-64
2020/12/16 11:59:04;;;;;;;46.13;20.80;;;11.30;84.40;;;;;;5114286;28;20339;-70
2020/12/16 12:01:31;;;;;;;47.42;20.55;;;11.30;84.30;;;;;;5114071;28;20495;-70
2020/12/16 12:03:56;;;;;;;44.28;15.98;;;11.30;84.30;;;;;;5104487;28;20036;-71
2020/12/16 12:06:22;;;;;;;42.25;18.45;;;11.30;84.40;;;;;;5092811;28;20506;-64
2020/12/16 12:08:48;;;;;;;44.72;20.10;;;11.30;84.40;;;;;;5093973;28;20032;-67
2020/12/16 12:11:16;;;;;;;43.92;21.40;;;11.30;84.40;;;;;;5093358;28;20119;-67
2020/12/16 12:13:42;;;;;;;50.58;22.20;;;11.40;84.60;;;;;;5094055;28;20479;-67
2020/12/16 12:16:09;;;;;;;53.08;22.23;;;11.40;84.60;;;;;;5093189;28;20032;-67
2020/12/16 12:18:35;;;;;;;46.55;18.67;;;11.30;84.60;;;;;;5093428;28;20120;-67
2020/12/16 12:21:01;;;;;;;50.05;22.92;;;11.40;84.50;;;;;;5093613;28;20115;-66
2020/12/16 12:23:26;;;;;;;48.00;21.95;;;11.40;84.50;;;;;;5093856;28;20036;-67
2020/12/16 12:25:52;;;;;;;55.30;23.92;;;11.30;84.50;;;;;;5093206;28;20063;-67
2020/12/16 12:28:18;;;;;;;55.10;25.23;;;11.40;84.60;;;;;;5093352;28;20522;-67
2020/12/16 12:30:43;;;;;;;53.83;24.38;;;11.40;84.80;;;;;;5093040;28;20073;-67
2020/12/16 12:33:09;;;;;;;53.20;24.67;;;11.30;85.40;;;;;;5093585;28;20455;-67
2020/12/16 12:35:35;;;;;;;51.88;24.60;;;11.40;84.80;;;;;;5093264;28;20095;-67
2020/12/16 12:38:00;;;;;;;55.25;24.02;;;11.40;84.90;;;;;;5092941;28;20111;-67
2020/12/16 12:40:26;;;;;;;55.75;25.08;;;11.40;84.90;;;;;;5093420;28;20077;-67